Estación de Galvarino
Ultimos registro cada 15 minutos 65
| N° | Estación | Fecha / Hora | Temperatura | Humedad | Lluvia | Velocidad | Dirección | Radiación | Presion |
| 65 | Galvarino | 03-05-2026 16:00 | 9,4 | 91,8 | 0,2 | 4 | 171 | 56,9 | 990,8 |
| 64 | Galvarino | 03-05-2026 15:45 | 9,4 | 91,8 | 0 | 3,5 | 170 | 69,4 | 990,5 |
| 63 | Galvarino | 03-05-2026 15:30 | 9,3 | 91,8 | 0 | 4 | 170 | 83,1 | 990,5 |
| 62 | Galvarino | 03-05-2026 15:15 | 9,3 | 92,2 | 0 | 4 | 170 | 196,9 | 990,3 |
| 61 | Galvarino | 03-05-2026 15:00 | 9,3 | 92,6 | 0 | 3 | 171 | 165,6 | 990,5 |
| 60 | Galvarino | 03-05-2026 14:45 | 9,1 | 93,4 | 0 | 2 | 174 | 175,6 | 990,6 |
| 59 | Galvarino | 03-05-2026 14:30 | 9 | 93,5 | 0 | 2 | 177 | 140,6 | 990,7 |
| 58 | Galvarino | 03-05-2026 14:15 | 8,9 | 94,1 | 0 | 1 | 173 | 104,4 | 991,2 |
| 57 | Galvarino | 03-05-2026 14:00 | 8,8 | 95,5 | 0 | 0 | 174 | 89,4 | 990,8 |
| 56 | Galvarino | 03-05-2026 13:45 | 8,6 | 95 | 0 | 0,5 | 175 | 64,4 | 991,4 |
| 55 | Galvarino | 03-05-2026 13:30 | 8,5 | 95,4 | 0 | 0 | 174 | 65,6 | 991,7 |
| 54 | Galvarino | 03-05-2026 13:15 | 8,4 | 95,4 | 0 | 0 | 168 | 45,6 | 991,9 |
| 53 | Galvarino | 03-05-2026 13:00 | 8,5 | 94,6 | 0 | 0 | 167 | 31,9 | 991,9 |
| 52 | Galvarino | 03-05-2026 12:45 | 8,6 | 94,7 | 0 | 0 | 135 | 66,9 | 991,8 |
| 51 | Galvarino | 03-05-2026 12:30 | 8,3 | 93,7 | 0,2 | 0 | 166 | 79,4 | 991,7 |
| 50 | Galvarino | 03-05-2026 12:15 | 8,4 | 92,4 | 0,2 | 0 | 173 | 26,9 | 991,6 |
| 49 | Galvarino | 03-05-2026 12:00 | 8,6 | 92,7 | 0 | 0 | 163 | 55,6 | 991,2 |
| 48 | Galvarino | 03-05-2026 11:45 | 8,9 | 91,3 | 0 | 1 | 163 | 90,6 | 991,1 |
| 47 | Galvarino | 03-05-2026 11:30 | 9,1 | 87,7 | 0 | 0 | 157 | 120,6 | 990,7 |
| 46 | Galvarino | 03-05-2026 11:15 | 9,3 | 82,8 | 0 | 1,5 | 160 | 88,1 | 990,8 |
| 45 | Galvarino | 03-05-2026 11:00 | 9,1 | 82 | 0 | 2,5 | 170 | 93,1 | 990,5 |
| 44 | Galvarino | 03-05-2026 10:45 | 9,2 | 83,1 | 0 | 3 | 170 | 120,6 | 990,2 |
| 43 | Galvarino | 03-05-2026 10:30 | 9,5 | 79,9 | 0 | 3 | 168 | 95,6 | 990 |
| 42 | Galvarino | 03-05-2026 10:15 | 9,5 | 80,5 | 0 | 2 | 171 | 91,9 | 989,9 |
| 41 | Galvarino | 03-05-2026 10:00 | 9,3 | 82,5 | 0 | 0,5 | 164 | 63,1 | 990,4 |
| 40 | Galvarino | 03-05-2026 09:45 | 9 | 85,6 | 0 | 0,5 | 161 | 41,9 | 990,7 |
| 39 | Galvarino | 03-05-2026 09:30 | 8,8 | 86,5 | 0 | 1 | 160 | 38,1 | 990,6 |
| 38 | Galvarino | 03-05-2026 09:15 | 8,6 | 88,3 | 0 | 1 | 160 | 28,1 | 990,5 |
| 37 | Galvarino | 03-05-2026 09:00 | 8,3 | 89 | 0,6 | 2 | 163 | 39,4 | 990,1 |
| 36 | Galvarino | 03-05-2026 08:45 | 8,5 | 87,6 | 0,2 | 2,5 | 159 | 6,9 | 990,3 |
| 35 | Galvarino | 03-05-2026 08:30 | 9,1 | 81,6 | 0 | 3 | 171 | 8,1 | 989,8 |
| 34 | Galvarino | 03-05-2026 08:15 | 9,2 | 81 | 0 | 3,5 | 173 | 8,1 | 989,7 |
| 33 | Galvarino | 03-05-2026 08:00 | 8,9 | 83,6 | 0 | 1,5 | 171 | 4,4 | 989,9 |
| 32 | Galvarino | 03-05-2026 07:45 | 8,7 | 84,6 | 0 | 0,5 | 166 | 0,6 | 989,9 |
| 31 | Galvarino | 03-05-2026 07:30 | 8,4 | 86,2 | 0 | 0,5 | 164 | 0,6 | 990,1 |
| 30 | Galvarino | 03-05-2026 07:15 | 8,2 | 86,8 | 0 | 0,5 | 174 | 0,6 | 990,1 |
| 29 | Galvarino | 03-05-2026 07:00 | 8,3 | 85,8 | 0 | 1,5 | 170 | 0,6 | 989,9 |
| 28 | Galvarino | 03-05-2026 06:45 | 8,6 | 84,3 | 0 | 1,5 | 175 | 0,6 | 990 |
| 27 | Galvarino | 03-05-2026 06:30 | 8,9 | 82,7 | 0 | 1 | 178 | 0,6 | 990,1 |
| 26 | Galvarino | 03-05-2026 06:15 | 9,3 | 81,6 | 0 | 1 | 171 | 0,6 | 990,3 |
| 25 | Galvarino | 03-05-2026 06:00 | 9,3 | 80,3 | 0 | 0 | 175 | 0,6 | 990,7 |
| 24 | Galvarino | 03-05-2026 05:45 | 8,9 | 81 | 0 | 0 | 175 | 0,6 | 990,4 |
| 23 | Galvarino | 03-05-2026 05:30 | 8,5 | 81,9 | 0 | 0 | 168 | 0,6 | 990,5 |
| 22 | Galvarino | 03-05-2026 05:15 | 8,1 | 83,5 | 0 | 0 | 160 | 0,6 | 990,1 |
| 21 | Galvarino | 03-05-2026 05:00 | 8 | 83,3 | 0 | 1 | 170 | 0,6 | 990,2 |
| 20 | Galvarino | 03-05-2026 04:45 | 8,1 | 83,3 | 0 | 1 | 173 | 0,6 | 990,3 |
| 19 | Galvarino | 03-05-2026 04:30 | 8,5 | 81,3 | 0 | 1 | 133 | 0,6 | 990,4 |
| 18 | Galvarino | 03-05-2026 04:15 | 8 | 84,7 | 0 | 0,5 | 88 | 0,6 | 990,5 |
| 17 | Galvarino | 03-05-2026 04:00 | 7,4 | 87,3 | 0 | 0,5 | 52 | 0,6 | 991,3 |
| 16 | Galvarino | 03-05-2026 03:45 | 7,2 | 89 | 0 | 0 | 51 | 0,6 | 991,1 |
| 15 | Galvarino | 03-05-2026 03:30 | 7 | 89,2 | 0 | 0 | 44 | 0,6 | 991,2 |
| 14 | Galvarino | 03-05-2026 03:15 | 6,5 | 91,7 | 0 | 0 | 37 | 0,6 | 991,3 |
| 13 | Galvarino | 03-05-2026 03:00 | 6,8 | 90,9 | 0 | 0 | 37 | 0,6 | 991,5 |
| 12 | Galvarino | 03-05-2026 02:45 | 6,5 | 92,4 | 0 | 0 | 37 | 0,6 | 991,6 |
| 11 | Galvarino | 03-05-2026 02:30 | 6,8 | 90,7 | 0 | 0 | 37 | 0,6 | 991,6 |
| 10 | Galvarino | 03-05-2026 02:15 | 6,7 | 90,8 | 0 | 0 | 37 | 0,6 | 991,3 |
| 9 | Galvarino | 03-05-2026 02:00 | 6,6 | 90,5 | 0 | 0 | 27 | 0,6 | 991,7 |
| 8 | Galvarino | 03-05-2026 01:45 | 6,2 | 91,2 | 0 | 0 | 357 | 0,6 | 991,7 |
| 7 | Galvarino | 03-05-2026 01:30 | 6,3 | 90,7 | 0 | 0 | 357 | 0,6 | 991,5 |
| 6 | Galvarino | 03-05-2026 01:15 | 6,3 | 91,7 | 0 | 0 | 357 | 0,6 | 991,3 |
| 5 | Galvarino | 03-05-2026 01:00 | 6 | 92,3 | 0 | 0 | 357 | 0,6 | 992 |
| 4 | Galvarino | 03-05-2026 00:45 | 5,8 | 92,9 | 0 | 0 | 357 | 0,6 | 992 |
| 3 | Galvarino | 03-05-2026 00:30 | 4,9 | 95,4 | 0 | 0 | 357 | 0,6 | 992,1 |
| 2 | Galvarino | 03-05-2026 00:15 | 4,6 | 94,9 | 0 | 0 | 357 | 0,6 | 992,3 |
| 1 | Galvarino | 03-05-2026 00:00 | 4,8 | 95,3 | 0 | 0 | 357 | 0,6 | 991,9 |